sensor_id;sensor_type;location;lat;lon;timestamp;P1;durP1;ratioP1;P2;durP2;ratioP2
76167;SDS011;64927;48.214;16.378;2023-02-04T00:01:54;11.10;;;2.17;;
76167;SDS011;64927;48.214;16.378;2023-02-04T00:04:22;7.45;;;2.13;;
76167;SDS011;64927;48.214;16.378;2023-02-04T00:06:48;8.88;;;1.60;;
76167;SDS011;64927;48.214;16.378;2023-02-04T00:09:14;7.07;;;2.25;;
76167;SDS011;64927;48.214;16.378;2023-02-04T00:11:42;5.78;;;2.00;;
76167;SDS011;64927;48.214;16.378;2023-02-04T00:14:10;9.07;;;2.13;;
76167;SDS011;64927;48.214;16.378;2023-02-04T00:16:36;6.07;;;1.60;;
76167;SDS011;64927;48.214;16.378;2023-02-04T00:19:01;16.85;;;2.72;;
76167;SDS011;64927;48.214;16.378;2023-02-04T00:21:29;8.85;;;2.10;;
76167;SDS011;64927;48.214;16.378;2023-02-04T00:23:55;6.28;;;2.40;;
76167;SDS011;64927;48.214;16.378;2023-02-04T00:26:20;11.57;;;1.98;;
76167;SDS011;64927;48.214;16.378;2023-02-04T00:28:46;10.85;;;2.22;;
76167;SDS011;64927;48.214;16.378;2023-02-04T00:31:12;8.93;;;2.38;;
76167;SDS011;64927;48.214;16.378;2023-02-04T00:33:37;11.43;;;2.28;;
76167;SDS011;64927;48.214;16.378;2023-02-04T00:36:03;8.60;;;1.98;;
76167;SDS011;64927;48.214;16.378;2023-02-04T00:38:31;10.05;;;2.10;;
76167;SDS011;64927;48.214;16.378;2023-02-04T00:40:57;9.27;;;2.25;;
76167;SDS011;64927;48.214;16.378;2023-02-04T00:43:24;9.93;;;1.92;;
76167;SDS011;64927;48.214;16.378;2023-02-04T00:45:50;6.88;;;1.95;;
76167;SDS011;64927;48.214;16.378;2023-02-04T00:48:16;6.18;;;1.70;;
76167;SDS011;64927;48.214;16.378;2023-02-04T00:50:44;6.10;;;1.98;;
76167;SDS011;64927;48.214;16.378;2023-02-04T00:53:09;8.85;;;2.50;;
76167;SDS011;64927;48.214;16.378;2023-02-04T00:55:35;10.60;;;2.00;;
76167;SDS011;64927;48.214;16.378;2023-02-04T00:58:03;8.00;;;2.08;;
76167;SDS011;64927;48.214;16.378;2023-02-04T01:00:31;8.75;;;2.13;;
76167;SDS011;64927;48.214;16.378;2023-02-04T01:02:56;6.38;;;1.77;;
76167;SDS011;64927;48.214;16.378;2023-02-04T01:05:24;10.43;;;2.60;;
76167;SDS011;64927;48.214;16.378;2023-02-04T01:07:50;6.35;;;1.60;;
76167;SDS011;64927;48.214;16.378;2023-02-04T01:10:18;7.88;;;1.67;;
76167;SDS011;64927;48.214;16.378;2023-02-04T01:12:46;7.13;;;2.33;;
76167;SDS011;64927;48.214;16.378;2023-02-04T01:15:11;9.52;;;2.42;;
76167;SDS011;64927;48.214;16.378;2023-02-04T01:17:39;9.90;;;1.80;;
76167;SDS011;64927;48.214;16.378;2023-02-04T01:20:06;9.90;;;2.50;;
76167;SDS011;64927;48.214;16.378;2023-02-04T01:22:32;8.85;;;1.70;;
76167;SDS011;64927;48.214;16.378;2023-02-04T01:24:57;9.63;;;2.20;;
76167;SDS011;64927;48.214;16.378;2023-02-04T01:27:23;9.85;;;1.60;;
76167;SDS011;64927;48.214;16.378;2023-02-04T01:29:49;7.30;;;1.90;;
76167;SDS011;64927;48.214;16.378;2023-02-04T01:32:14;4.90;;;1.50;;
76167;SDS011;64927;48.214;16.378;2023-02-04T01:34:40;9.68;;;1.92;;
76167;SDS011;64927;48.214;16.378;2023-02-04T01:37:06;11.00;;;2.08;;
76167;SDS011;64927;48.214;16.378;2023-02-04T01:39:31;9.55;;;2.10;;
76167;SDS011;64927;48.214;16.378;2023-02-04T01:41:58;4.68;;;1.90;;
76167;SDS011;64927;48.214;16.378;2023-02-04T01:44:25;4.85;;;1.63;;
76167;SDS011;64927;48.214;16.378;2023-02-04T01:46:54;5.22;;;1.55;;
76167;SDS011;64927;48.214;16.378;2023-02-04T01:49:20;9.32;;;2.40;;
76167;SDS011;64927;48.214;16.378;2023-02-04T01:51:48;6.40;;;1.23;;
76167;SDS011;64927;48.214;16.378;2023-02-04T01:54:14;8.80;;;1.77;;
76167;SDS011;64927;48.214;16.378;2023-02-04T01:56:43;5.95;;;1.83;;
76167;SDS011;64927;48.214;16.378;2023-02-04T01:59:14;10.23;;;1.55;;
76167;SDS011;64927;48.214;16.378;2023-02-04T02:01:44;9.13;;;2.30;;
76167;SDS011;64927;48.214;16.378;2023-02-04T02:04:16;4.93;;;1.40;;
76167;SDS011;64927;48.214;16.378;2023-02-04T02:06:46;13.20;;;2.15;;
76167;SDS011;64927;48.214;16.378;2023-02-04T02:09:16;7.28;;;1.73;;
76167;SDS011;64927;48.214;16.378;2023-02-04T02:11:45;4.97;;;1.23;;
76167;SDS011;64927;48.214;16.378;2023-02-04T02:14:13;5.68;;;1.17;;
76167;SDS011;64927;48.214;16.378;2023-02-04T02:16:41;6.82;;;1.65;;
76167;SDS011;64927;48.214;16.378;2023-02-04T02:19:08;8.80;;;1.88;;
76167;SDS011;64927;48.214;16.378;2023-02-04T02:21:39;5.45;;;1.50;;
76167;SDS011;64927;48.214;16.378;2023-02-04T02:24:26;6.30;;;1.73;;
76167;SDS011;64927;48.214;16.378;2023-02-04T02:26:52;6.28;;;1.38;;
76167;SDS011;64927;48.214;16.378;2023-02-04T02:29:19;5.38;;;1.92;;
76167;SDS011;64927;48.214;16.378;2023-02-04T02:31:46;6.68;;;1.80;;
76167;SDS011;64927;48.214;16.378;2023-02-04T02:34:11;5.57;;;1.20;;
76167;SDS011;64927;48.214;16.378;2023-02-04T02:36:39;4.38;;;1.60;;
76167;SDS011;64927;48.214;16.378;2023-02-04T02:39:05;6.82;;;1.55;;
76167;SDS011;64927;48.214;16.378;2023-02-04T02:41:31;4.38;;;1.27;;
76167;SDS011;64927;48.214;16.378;2023-02-04T02:43:57;6.68;;;1.30;;
76167;SDS011;64927;48.214;16.378;2023-02-04T02:46:23;4.35;;;1.13;;
76167;SDS011;64927;48.214;16.378;2023-02-04T02:48:49;6.22;;;1.38;;
76167;SDS011;64927;48.214;16.378;2023-02-04T02:51:15;6.25;;;1.67;;
76167;SDS011;64927;48.214;16.378;2023-02-04T02:53:41;8.70;;;1.25;;
76167;SDS011;64927;48.214;16.378;2023-02-04T02:56:09;6.72;;;1.50;;
76167;SDS011;64927;48.214;16.378;2023-02-04T02:58:35;5.68;;;1.35;;
76167;SDS011;64927;48.214;16.378;2023-02-04T03:01:02;6.07;;;1.40;;
76167;SDS011;64927;48.214;16.378;2023-02-04T03:03:30;4.60;;;1.27;;
76167;SDS011;64927;48.214;16.378;2023-02-04T03:06:01;8.23;;;1.58;;
76167;SDS011;64927;48.214;16.378;2023-02-04T03:08:34;5.45;;;1.20;;
76167;SDS011;64927;48.214;16.378;2023-02-04T03:11:00;4.30;;;1.27;;
76167;SDS011;64927;48.214;16.378;2023-02-04T03:13:26;6.18;;;1.52;;
76167;SDS011;64927;48.214;16.378;2023-02-04T03:15:53;5.80;;;1.60;;
76167;SDS011;64927;48.214;16.378;2023-02-04T03:18:19;8.00;;;1.55;;
76167;SDS011;64927;48.214;16.378;2023-02-04T03:20:46;7.18;;;1.10;;
76167;SDS011;64927;48.214;16.378;2023-02-04T03:23:14;4.03;;;1.05;;
76167;SDS011;64927;48.214;16.378;2023-02-04T03:25:40;5.50;;;1.05;;
76167;SDS011;64927;48.214;16.378;2023-02-04T03:28:09;6.43;;;1.30;;
76167;SDS011;64927;48.214;16.378;2023-02-04T03:30:37;6.22;;;1.70;;
76167;SDS011;64927;48.214;16.378;2023-02-04T03:33:03;10.05;;;1.30;;
76167;SDS011;64927;48.214;16.378;2023-02-04T03:35:31;2.85;;;1.20;;
76167;SDS011;64927;48.214;16.378;2023-02-04T03:37:57;6.00;;;0.90;;
76167;SDS011;64927;48.214;16.378;2023-02-04T03:40:25;5.70;;;1.10;;
76167;SDS011;64927;48.214;16.378;2023-02-04T03:42:53;6.88;;;1.40;;
76167;SDS011;64927;48.214;16.378;2023-02-04T03:45:19;8.25;;;1.23;;
76167;SDS011;64927;48.214;16.378;2023-02-04T03:47:47;5.18;;;0.90;;
76167;SDS011;64927;48.214;16.378;2023-02-04T03:50:13;5.65;;;1.27;;
76167;SDS011;64927;48.214;16.378;2023-02-04T03:52:39;5.15;;;1.30;;
76167;SDS011;64927;48.214;16.378;2023-02-04T03:55:04;5.05;;;1.10;;
76167;SDS011;64927;48.214;16.378;2023-02-04T03:57:32;6.10;;;1.15;;
76167;SDS011;64927;48.214;16.378;2023-02-04T03:59:58;5.95;;;0.80;;
76167;SDS011;64927;48.214;16.378;2023-02-04T04:02:26;5.80;;;1.08;;
76167;SDS011;64927;48.214;16.378;2023-02-04T04:04:52;5.38;;;1.17;;
76167;SDS011;64927;48.214;16.378;2023-02-04T04:07:17;2.47;;;0.55;;
76167;SDS011;64927;48.214;16.378;2023-02-04T04:09:43;4.65;;;1.05;;
76167;SDS011;64927;48.214;16.378;2023-02-04T04:12:09;2.38;;;0.70;;
76167;SDS011;64927;48.214;16.378;2023-02-04T04:14:34;5.57;;;0.80;;
76167;SDS011;64927;48.214;16.378;2023-02-04T04:17:01;5.25;;;1.00;;
76167;SDS011;64927;48.214;16.378;2023-02-04T04:19:26;4.57;;;1.02;;
76167;SDS011;64927;48.214;16.378;2023-02-04T04:21:56;4.13;;;1.08;;
76167;SDS011;64927;48.214;16.378;2023-02-04T04:24:21;4.07;;;0.68;;
76167;SDS011;64927;48.214;16.378;2023-02-04T04:26:47;2.78;;;0.82;;
76167;SDS011;64927;48.214;16.378;2023-02-04T04:29:13;1.80;;;0.60;;
76167;SDS011;64927;48.214;16.378;2023-02-04T04:31:41;2.47;;;0.60;;
76167;SDS011;64927;48.214;16.378;2023-02-04T04:34:06;3.05;;;0.70;;
76167;SDS011;64927;48.214;16.378;2023-02-04T04:36:32;2.92;;;0.70;;
76167;SDS011;64927;48.214;16.378;2023-02-04T04:38:57;0.60;;;0.25;;
76167;SDS011;64927;48.214;16.378;2023-02-04T04:41:23;1.58;;;0.82;;
76167;SDS011;64927;48.214;16.378;2023-02-04T04:43:49;1.48;;;0.40;;
76167;SDS011;64927;48.214;16.378;2023-02-04T04:46:14;1.38;;;0.40;;
76167;SDS011;64927;48.214;16.378;2023-02-04T04:48:40;0.77;;;0.40;;
76167;SDS011;64927;48.214;16.378;2023-02-04T04:51:06;2.65;;;0.63;;
76167;SDS011;64927;48.214;16.378;2023-02-04T04:53:31;1.40;;;0.57;;
76167;SDS011;64927;48.214;16.378;2023-02-04T04:55:57;1.33;;;0.50;;
76167;SDS011;64927;48.214;16.378;2023-02-04T04:58:23;0.98;;;0.45;;
76167;SDS011;64927;48.214;16.378;2023-02-04T05:00:50;0.77;;;0.68;;
76167;SDS011;64927;48.214;16.378;2023-02-04T05:03:16;1.17;;;0.43;;
76167;SDS011;64927;48.214;16.378;2023-02-04T05:05:42;1.05;;;0.40;;
76167;SDS011;64927;48.214;16.378;2023-02-04T05:08:10;2.45;;;0.52;;
76167;SDS011;64927;48.214;16.378;2023-02-04T05:10:43;0.40;;;0.40;;
76167;SDS011;64927;48.214;16.378;2023-02-04T05:13:09;1.17;;;0.50;;
76167;SDS011;64927;48.214;16.378;2023-02-04T05:15:35;1.65;;;0.63;;
76167;SDS011;64927;48.214;16.378;2023-02-04T05:18:03;1.77;;;0.75;;
76167;SDS011;64927;48.214;16.378;2023-02-04T05:20:29;0.35;;;0.35;;
76167;SDS011;64927;48.214;16.378;2023-02-04T05:22:55;1.80;;;0.52;;
76167;SDS011;64927;48.214;16.378;2023-02-04T05:25:21;0.95;;;0.60;;
76167;SDS011;64927;48.214;16.378;2023-02-04T05:27:50;3.30;;;0.70;;
76167;SDS011;64927;48.214;16.378;2023-02-04T05:30:15;0.90;;;0.60;;
76167;SDS011;64927;48.214;16.378;2023-02-04T05:32:41;1.38;;;0.73;;
76167;SDS011;64927;48.214;16.378;2023-02-04T05:35:07;1.35;;;0.77;;
76167;SDS011;64927;48.214;16.378;2023-02-04T05:37:33;2.83;;;0.65;;
76167;SDS011;64927;48.214;16.378;2023-02-04T05:39:58;1.55;;;0.80;;
76167;SDS011;64927;48.214;16.378;2023-02-04T05:42:26;2.97;;;0.85;;
76167;SDS011;64927;48.214;16.378;2023-02-04T05:44:52;1.50;;;1.00;;
76167;SDS011;64927;48.214;16.378;2023-02-04T05:47:18;2.95;;;1.10;;
76167;SDS011;64927;48.214;16.378;2023-02-04T05:49:44;1.35;;;1.10;;
76167;SDS011;64927;48.214;16.378;2023-02-04T05:52:10;2.00;;;1.00;;
76167;SDS011;64927;48.214;16.378;2023-02-04T05:54:36;1.10;;;0.90;;
76167;SDS011;64927;48.214;16.378;2023-02-04T05:57:06;2.08;;;1.30;;
76167;SDS011;64927;48.214;16.378;2023-02-04T05:59:32;1.88;;;1.20;;
76167;SDS011;64927;48.214;16.378;2023-02-04T06:01:58;2.03;;;1.20;;
76167;SDS011;64927;48.214;16.378;2023-02-04T06:04:25;3.80;;;0.98;;
76167;SDS011;64927;48.214;16.378;2023-02-04T06:06:51;1.58;;;1.00;;
76167;SDS011;64927;48.214;16.378;2023-02-04T06:09:17;2.35;;;1.13;;
76167;SDS011;64927;48.214;16.378;2023-02-04T06:11:42;1.85;;;1.30;;
76167;SDS011;64927;48.214;16.378;2023-02-04T06:14:08;2.10;;;1.15;;
76167;SDS011;64927;48.214;16.378;2023-02-04T06:16:34;8.60;;;1.25;;
76167;SDS011;64927;48.214;16.378;2023-02-04T06:19:05;3.67;;;1.50;;
76167;SDS011;64927;48.214;16.378;2023-02-04T06:21:30;2.42;;;1.15;;
76167;SDS011;64927;48.214;16.378;2023-02-04T06:23:56;4.47;;;1.30;;
76167;SDS011;64927;48.214;16.378;2023-02-04T06:26:24;1.85;;;1.30;;
76167;SDS011;64927;48.214;16.378;2023-02-04T06:28:53;1.75;;;1.33;;
76167;SDS011;64927;48.214;16.378;2023-02-04T06:31:21;1.70;;;1.25;;
76167;SDS011;64927;48.214;16.378;2023-02-04T06:33:46;2.95;;;1.40;;
76167;SDS011;64927;48.214;16.378;2023-02-04T06:36:14;3.65;;;1.50;;
76167;SDS011;64927;48.214;16.378;2023-02-04T06:38:40;3.55;;;1.90;;
76167;SDS011;64927;48.214;16.378;2023-02-04T06:41:08;2.75;;;1.70;;
76167;SDS011;64927;48.214;16.378;2023-02-04T06:43:34;2.17;;;1.38;;
76167;SDS011;64927;48.214;16.378;2023-02-04T06:46:00;3.17;;;1.83;;
76167;SDS011;64927;48.214;16.378;2023-02-04T06:48:25;4.03;;;1.75;;
76167;SDS011;64927;48.214;16.378;2023-02-04T06:50:51;3.60;;;2.08;;
76167;SDS011;64927;48.214;16.378;2023-02-04T06:53:19;2.42;;;1.40;;
76167;SDS011;64927;48.214;16.378;2023-02-04T06:55:45;4.00;;;1.60;;
76167;SDS011;64927;48.214;16.378;2023-02-04T06:58:11;5.15;;;2.00;;
76167;SDS011;64927;48.214;16.378;2023-02-04T07:00:37;2.60;;;1.45;;
76167;SDS011;64927;48.214;16.378;2023-02-04T07:03:02;2.35;;;1.60;;
76167;SDS011;64927;48.214;16.378;2023-02-04T07:05:28;3.05;;;1.63;;
76167;SDS011;64927;48.214;16.378;2023-02-04T07:07:56;2.40;;;1.58;;
76167;SDS011;64927;48.214;16.378;2023-02-04T07:10:22;2.38;;;1.73;;
76167;SDS011;64927;48.214;16.378;2023-02-04T07:12:50;3.72;;;1.85;;
76167;SDS011;64927;48.214;16.378;2023-02-04T07:15:18;2.53;;;1.48;;
76167;SDS011;64927;48.214;16.378;2023-02-04T07:17:43;3.65;;;1.90;;
76167;SDS011;64927;48.214;16.378;2023-02-04T07:20:11;2.50;;;1.75;;
76167;SDS011;64927;48.214;16.378;2023-02-04T07:22:37;3.03;;;1.90;;
76167;SDS011;64927;48.214;16.378;2023-02-04T07:25:02;3.53;;;2.13;;
76167;SDS011;64927;48.214;16.378;2023-02-04T07:27:28;3.25;;;2.00;;
76167;SDS011;64927;48.214;16.378;2023-02-04T07:29:54;4.20;;;2.67;;
76167;SDS011;64927;48.214;16.378;2023-02-04T07:32:22;3.80;;;2.10;;
76167;SDS011;64927;48.214;16.378;2023-02-04T07:34:48;5.50;;;2.15;;
76167;SDS011;64927;48.214;16.378;2023-02-04T07:37:13;1.83;;;1.25;;
76167;SDS011;64927;48.214;16.378;2023-02-04T07:39:39;1.38;;;1.13;;
76167;SDS011;64927;48.214;16.378;2023-02-04T07:42:05;2.90;;;1.27;;
76167;SDS011;64927;48.214;16.378;2023-02-04T07:44:31;2.15;;;1.20;;
76167;SDS011;64927;48.214;16.378;2023-02-04T07:46:56;2.15;;;0.90;;
76167;SDS011;64927;48.214;16.378;2023-02-04T07:49:24;4.93;;;1.00;;
76167;SDS011;64927;48.214;16.378;2023-02-04T07:51:50;1.88;;;1.10;;
76167;SDS011;64927;48.214;16.378;2023-02-04T07:54:16;2.33;;;1.95;;
76167;SDS011;64927;48.214;16.378;2023-02-04T07:56:44;3.55;;;1.05;;
76167;SDS011;64927;48.214;16.378;2023-02-04T07:59:09;2.13;;;1.40;;
76167;SDS011;64927;48.214;16.378;2023-02-04T08:01:35;2.10;;;1.52;;
76167;SDS011;64927;48.214;16.378;2023-02-04T08:04:00;3.10;;;1.95;;
76167;SDS011;64927;48.214;16.378;2023-02-04T08:06:26;3.30;;;1.60;;
76167;SDS011;64927;48.214;16.378;2023-02-04T08:08:54;1.83;;;1.58;;
76167;SDS011;64927;48.214;16.378;2023-02-04T08:11:20;2.75;;;1.67;;
76167;SDS011;64927;48.214;16.378;2023-02-04T08:13:45;2.10;;;1.67;;
76167;SDS011;64927;48.214;16.378;2023-02-04T08:16:11;3.05;;;1.85;;
76167;SDS011;64927;48.214;16.378;2023-02-04T08:18:37;2.35;;;1.23;;
76167;SDS011;64927;48.214;16.378;2023-02-04T08:21:02;5.20;;;1.83;;
76167;SDS011;64927;48.214;16.378;2023-02-04T08:23:30;1.75;;;1.20;;
76167;SDS011;64927;48.214;16.378;2023-02-04T08:25:57;2.13;;;1.17;;
76167;SDS011;64927;48.214;16.378;2023-02-04T08:28:23;1.40;;;0.90;;
76167;SDS011;64927;48.214;16.378;2023-02-04T08:30:51;2.08;;;1.25;;
76167;SDS011;64927;48.214;16.378;2023-02-04T08:33:20;2.10;;;1.30;;
76167;SDS011;64927;48.214;16.378;2023-02-04T08:35:46;2.30;;;1.30;;
76167;SDS011;64927;48.214;16.378;2023-02-04T08:38:11;2.25;;;1.00;;
76167;SDS011;64927;48.214;16.378;2023-02-04T08:40:39;2.72;;;1.48;;
76167;SDS011;64927;48.214;16.378;2023-02-04T08:43:08;1.98;;;0.80;;
76167;SDS011;64927;48.214;16.378;2023-02-04T08:45:34;2.10;;;1.25;;
76167;SDS011;64927;48.214;16.378;2023-02-04T08:48:01;1.75;;;0.90;;
76167;SDS011;64927;48.214;16.378;2023-02-04T08:50:27;2.50;;;0.93;;
76167;SDS011;64927;48.214;16.378;2023-02-04T08:52:54;0.88;;;0.75;;
76167;SDS011;64927;48.214;16.378;2023-02-04T08:55:20;1.65;;;1.17;;
76167;SDS011;64927;48.214;16.378;2023-02-04T08:57:46;2.08;;;1.02;;
76167;SDS011;64927;48.214;16.378;2023-02-04T09:00:12;5.53;;;1.40;;
76167;SDS011;64927;48.214;16.378;2023-02-04T09:02:38;1.40;;;1.02;;
76167;SDS011;64927;48.214;16.378;2023-02-04T09:05:03;2.05;;;1.08;;
76167;SDS011;64927;48.214;16.378;2023-02-04T09:07:34;0.88;;;0.73;;
76167;SDS011;64927;48.214;16.378;2023-02-04T09:09:59;2.53;;;1.05;;
76167;SDS011;64927;48.214;16.378;2023-02-04T09:12:25;1.27;;;0.95;;
76167;SDS011;64927;48.214;16.378;2023-02-04T09:14:51;1.98;;;0.98;;
76167;SDS011;64927;48.214;16.378;2023-02-04T09:17:19;2.05;;;1.20;;
76167;SDS011;64927;48.214;16.378;2023-02-04T09:19:45;2.25;;;1.50;;
76167;SDS011;64927;48.214;16.378;2023-02-04T09:22:13;2.22;;;1.30;;
76167;SDS011;64927;48.214;16.378;2023-02-04T09:24:39;3.65;;;1.05;;
76167;SDS011;64927;48.214;16.378;2023-02-04T09:27:05;2.25;;;0.93;;
76167;SDS011;64927;48.214;16.378;2023-02-04T09:29:30;2.05;;;1.20;;
76167;SDS011;64927;48.214;16.378;2023-02-04T09:31:56;3.53;;;1.00;;
76167;SDS011;64927;48.214;16.378;2023-02-04T09:34:27;1.75;;;1.25;;
76167;SDS011;64927;48.214;16.378;2023-02-04T09:36:55;2.70;;;1.58;;
76167;SDS011;64927;48.214;16.378;2023-02-04T09:39:20;2.22;;;1.10;;
76167;SDS011;64927;48.214;16.378;2023-02-04T09:41:46;3.45;;;1.17;;
76167;SDS011;64927;48.214;16.378;2023-02-04T09:44:15;1.95;;;1.13;;
76167;SDS011;64927;48.214;16.378;2023-02-04T09:46:44;4.13;;;1.52;;
76167;SDS011;64927;48.214;16.378;2023-02-04T09:49:13;3.90;;;1.30;;
76167;SDS011;64927;48.214;16.378;2023-02-04T09:51:41;2.35;;;1.20;;
76167;SDS011;64927;48.214;16.378;2023-02-04T09:54:12;5.03;;;1.33;;
76167;SDS011;64927;48.214;16.378;2023-02-04T09:56:42;1.58;;;1.15;;
76167;SDS011;64927;48.214;16.378;2023-02-04T09:59:14;3.35;;;1.17;;
76167;SDS011;64927;48.214;16.378;2023-02-04T10:01:42;1.85;;;1.05;;
76167;SDS011;64927;48.214;16.378;2023-02-04T10:04:12;1.48;;;1.00;;
76167;SDS011;64927;48.214;16.378;2023-02-04T10:06:39;2.53;;;1.42;;
76167;SDS011;64927;48.214;16.378;2023-02-04T10:09:08;1.55;;;1.17;;
76167;SDS011;64927;48.214;16.378;2023-02-04T10:11:39;1.92;;;1.30;;
76167;SDS011;64927;48.214;16.378;2023-02-04T10:14:13;1.98;;;1.35;;
76167;SDS011;64927;48.214;16.378;2023-02-04T10:16:42;1.85;;;1.20;;
76167;SDS011;64927;48.214;16.378;2023-02-04T10:19:14;4.25;;;2.40;;
76167;SDS011;64927;48.214;16.378;2023-02-04T10:21:40;2.03;;;1.63;;
76167;SDS011;64927;48.214;16.378;2023-02-04T10:24:18;2.00;;;1.40;;
76167;SDS011;64927;48.214;16.378;2023-02-04T10:26:46;2.08;;;1.42;;
76167;SDS011;64927;48.214;16.378;2023-02-04T10:29:13;3.45;;;1.90;;
76167;SDS011;64927;48.214;16.378;2023-02-04T10:31:45;3.63;;;1.60;;
76167;SDS011;64927;48.214;16.378;2023-02-04T10:36:42;2.13;;;1.33;;
76167;SDS011;64927;48.214;16.378;2023-02-04T10:39:14;2.20;;;1.30;;
76167;SDS011;64927;48.214;16.378;2023-02-04T10:41:51;2.92;;;1.60;;
76167;SDS011;64927;48.214;16.378;2023-02-04T10:44:20;2.97;;;1.52;;
76167;SDS011;64927;48.214;16.378;2023-02-04T10:47:04;2.53;;;1.50;;
76167;SDS011;64927;48.214;16.378;2023-02-04T10:49:33;3.20;;;1.48;;
76167;SDS011;64927;48.214;16.378;2023-02-04T10:52:00;2.63;;;1.63;;
76167;SDS011;64927;48.214;16.378;2023-02-04T10:54:36;1.38;;;0.93;;
76167;SDS011;64927;48.214;16.378;2023-02-04T10:57:22;5.70;;;1.70;;
76167;SDS011;64927;48.214;16.378;2023-02-04T10:59:56;3.13;;;1.27;;
76167;SDS011;64927;48.214;16.378;2023-02-04T11:07:34;2.10;;;1.40;;
76167;SDS011;64927;48.214;16.378;2023-02-04T11:10:00;1.70;;;1.05;;
76167;SDS011;64927;48.214;16.378;2023-02-04T11:12:35;4.05;;;1.30;;
76167;SDS011;64927;48.214;16.378;2023-02-04T11:15:35;2.33;;;1.30;;
76167;SDS011;64927;48.214;16.378;2023-02-04T11:20:49;2.83;;;1.45;;
76167;SDS011;64927;48.214;16.378;2023-02-04T11:33:46;3.42;;;1.77;;
76167;SDS011;64927;48.214;16.378;2023-02-04T11:36:13;9.63;;;2.00;;
76167;SDS011;64927;48.214;16.378;2023-02-04T11:38:42;1.80;;;1.45;;
76167;SDS011;64927;48.214;16.378;2023-02-04T11:41:14;2.72;;;1.30;;
76167;SDS011;64927;48.214;16.378;2023-02-04T11:43:43;2.03;;;1.25;;
76167;SDS011;64927;48.214;16.378;2023-02-04T11:46:15;1.45;;;1.00;;
76167;SDS011;64927;48.214;16.378;2023-02-04T11:48:42;2.97;;;1.42;;
76167;SDS011;64927;48.214;16.378;2023-02-04T11:51:12;1.80;;;1.20;;
76167;SDS011;64927;48.214;16.378;2023-02-04T11:53:40;1.42;;;1.08;;
76167;SDS011;64927;48.214;16.378;2023-02-04T11:56:06;3.38;;;0.88;;
76167;SDS011;64927;48.214;16.378;2023-02-04T11:58:40;3.22;;;1.15;;
76167;SDS011;64927;48.214;16.378;2023-02-04T12:01:15;2.10;;;1.17;;
76167;SDS011;64927;48.214;16.378;2023-02-04T12:03:46;2.17;;;1.20;;
76167;SDS011;64927;48.214;16.378;2023-02-04T12:06:20;2.92;;;1.33;;
76167;SDS011;64927;48.214;16.378;2023-02-04T12:08:50;1.75;;;1.08;;
76167;SDS011;64927;48.214;16.378;2023-02-04T12:11:28;4.85;;;1.45;;
76167;SDS011;64927;48.214;16.378;2023-02-04T12:13:58;1.83;;;1.20;;
76167;SDS011;64927;48.214;16.378;2023-02-04T12:16:45;2.67;;;1.10;;
76167;SDS011;64927;48.214;16.378;2023-02-04T12:19:12;4.07;;;1.60;;
76167;SDS011;64927;48.214;16.378;2023-02-04T12:21:40;2.03;;;1.40;;
76167;SDS011;64927;48.214;16.378;2023-02-04T12:24:06;2.17;;;1.20;;
76167;SDS011;64927;48.214;16.378;2023-02-04T12:26:32;2.78;;;1.20;;
76167;SDS011;64927;48.214;16.378;2023-02-04T12:28:57;1.95;;;1.27;;
76167;SDS011;64927;48.214;16.378;2023-02-04T12:31:26;2.30;;;1.17;;
76167;SDS011;64927;48.214;16.378;2023-02-04T12:33:52;1.80;;;1.20;;
76167;SDS011;64927;48.214;16.378;2023-02-04T12:36:20;3.22;;;1.40;;
76167;SDS011;64927;48.214;16.378;2023-02-04T12:38:46;2.22;;;1.20;;
76167;SDS011;64927;48.214;16.378;2023-02-04T12:41:12;5.00;;;1.42;;
76167;SDS011;64927;48.214;16.378;2023-02-04T12:43:37;1.17;;;1.05;;
76167;SDS011;64927;48.214;16.378;2023-02-04T12:46:03;2.25;;;1.40;;
76167;SDS011;64927;48.214;16.378;2023-02-04T12:48:29;1.95;;;1.08;;
76167;SDS011;64927;48.214;16.378;2023-02-04T12:50:54;3.30;;;1.48;;
76167;SDS011;64927;48.214;16.378;2023-02-04T12:53:22;3.60;;;1.33;;
76167;SDS011;64927;48.214;16.378;2023-02-04T12:55:48;2.78;;;1.27;;
76167;SDS011;64927;48.214;16.378;2023-02-04T12:58:14;3.20;;;2.05;;
76167;SDS011;64927;48.214;16.378;2023-02-04T13:00:39;2.72;;;1.50;;
76167;SDS011;64927;48.214;16.378;2023-02-04T13:03:11;2.35;;;1.30;;
76167;SDS011;64927;48.214;16.378;2023-02-04T13:05:37;3.28;;;1.65;;
76167;SDS011;64927;48.214;16.378;2023-02-04T13:08:02;2.33;;;1.35;;
76167;SDS011;64927;48.214;16.378;2023-02-04T13:10:28;3.42;;;1.27;;
76167;SDS011;64927;48.214;16.378;2023-02-04T13:12:54;2.75;;;1.20;;
76167;SDS011;64927;48.214;16.378;2023-02-04T13:15:24;2.28;;;1.10;;
76167;SDS011;64927;48.214;16.378;2023-02-04T13:17:50;2.30;;;1.00;;
76167;SDS011;64927;48.214;16.378;2023-02-04T13:20:16;2.15;;;1.40;;
76167;SDS011;64927;48.214;16.378;2023-02-04T13:22:42;1.02;;;0.90;;
76167;SDS011;64927;48.214;16.378;2023-02-04T13:25:07;3.10;;;1.15;;
76167;SDS011;64927;48.214;16.378;2023-02-04T13:27:35;2.78;;;1.48;;
76167;SDS011;64927;48.214;16.378;2023-02-04T13:30:02;4.13;;;1.13;;
76167;SDS011;64927;48.214;16.378;2023-02-04T13:32:30;2.33;;;1.10;;
76167;SDS011;64927;48.214;16.378;2023-02-04T13:34:58;2.20;;;1.30;;
76167;SDS011;64927;48.214;16.378;2023-02-04T13:37:23;14.50;;;6.68;;
76167;SDS011;64927;48.214;16.378;2023-02-04T13:39:49;1.88;;;1.25;;
76167;SDS011;64927;48.214;16.378;2023-02-04T13:42:17;3.38;;;1.88;;
76167;SDS011;64927;48.214;16.378;2023-02-04T13:44:43;1.17;;;1.08;;
76167;SDS011;64927;48.214;16.378;2023-02-04T13:47:08;5.57;;;1.55;;
76167;SDS011;64927;48.214;16.378;2023-02-04T13:49:34;2.53;;;1.58;;
76167;SDS011;64927;48.214;16.378;2023-02-04T13:52:00;2.22;;;1.17;;
76167;SDS011;64927;48.214;16.378;2023-02-04T13:54:25;2.00;;;1.02;;
76167;SDS011;64927;48.214;16.378;2023-02-04T13:56:53;1.60;;;1.17;;
76167;SDS011;64927;48.214;16.378;2023-02-04T13:59:19;4.03;;;1.13;;
76167;SDS011;64927;48.214;16.378;2023-02-04T14:01:47;2.08;;;1.30;;
76167;SDS011;64927;48.214;16.378;2023-02-04T14:04:13;2.13;;;1.35;;
76167;SDS011;64927;48.214;16.378;2023-02-04T14:06:38;4.80;;;1.30;;
76167;SDS011;64927;48.214;16.378;2023-02-04T14:09:08;1.95;;;1.10;;
76167;SDS011;64927;48.214;16.378;2023-02-04T14:11:35;2.60;;;1.33;;
76167;SDS011;64927;48.214;16.378;2023-02-04T14:14:00;3.05;;;1.63;;
76167;SDS011;64927;48.214;16.378;2023-02-04T14:16:26;6.93;;;1.73;;
76167;SDS011;64927;48.214;16.378;2023-02-04T14:18:52;1.77;;;1.17;;
76167;SDS011;64927;48.214;16.378;2023-02-04T14:21:18;2.00;;;1.48;;
76167;SDS011;64927;48.214;16.378;2023-02-04T14:23:43;4.97;;;2.90;;
76167;SDS011;64927;48.214;16.378;2023-02-04T14:26:09;2.58;;;1.45;;
76167;SDS011;64927;48.214;16.378;2023-02-04T14:28:35;2.10;;;1.63;;
76167;SDS011;64927;48.214;16.378;2023-02-04T14:31:01;1.83;;;0.98;;
76167;SDS011;64927;48.214;16.378;2023-02-04T14:33:26;2.63;;;1.33;;
76167;SDS011;64927;48.214;16.378;2023-02-04T14:35:52;3.53;;;1.45;;
76167;SDS011;64927;48.214;16.378;2023-02-04T14:38:20;3.40;;;1.67;;
76167;SDS011;64927;48.214;16.378;2023-02-04T14:40:46;2.47;;;1.58;;
76167;SDS011;64927;48.214;16.378;2023-02-04T14:43:12;1.98;;;1.35;;
76167;SDS011;64927;48.214;16.378;2023-02-04T14:45:38;2.97;;;1.35;;
76167;SDS011;64927;48.214;16.378;2023-02-04T14:48:05;2.38;;;1.42;;
76167;SDS011;64927;48.214;16.378;2023-02-04T14:50:32;4.97;;;1.40;;
76167;SDS011;64927;48.214;16.378;2023-02-04T14:53:01;2.45;;;1.40;;
76167;SDS011;64927;48.214;16.378;2023-02-04T14:55:27;4.13;;;2.30;;